Terminal Aerodrome Forecast
Issued by NWS

Home | Current Version | Previous Version | Text Only | Print | Product List | Glossary On
Versions: 1 2 3 4 5 6 7 8 9 10 11 12 13 14 15 16 17 18 19
137
FTUS43 KMPX 281242 AAA
TAFAXN
TAF AMD
KAXN 281242Z 2813/0112 03007KT P6SM VCSH OVC050
      TEMPO 2813/2816 2SM -SN BKN020
     FM281600 02009KT P6SM OVC020
     FM282100 01011KT P6SM OVC012
     FM010300 36007KT P6SM OVC008=

USA.gov is the U.S. government's official web portal to all federal, state and local government web resources and services.